createdAt,value
2023-05-15T00:00:39.472Z,97.2
2023-05-15T00:10:40.878Z,99.1
2023-05-15T00:15:39.373Z,97.7
2023-05-15T00:20:39.313Z,99.7
2023-05-15T00:30:39.331Z,98.9
2023-05-15T00:35:39.362Z,97.2
2023-05-15T00:40:39.344Z,96.2
2023-05-15T00:45:39.349Z,95.0
2023-05-15T00:50:39.330Z,94.6
2023-05-15T00:55:39.430Z,92.5
2023-05-15T01:00:39.409Z,91.7
2023-05-15T01:05:39.369Z,91.4
2023-05-15T01:10:39.513Z,91.5
2023-05-15T01:15:39.449Z,92.7
2023-05-15T01:20:39.531Z,92.1
2023-05-15T01:25:39.368Z,95.2
2023-05-15T01:30:40.439Z,96.5
2023-05-15T01:40:39.371Z,97.4
2023-05-15T01:45:39.364Z,93.4
2023-05-15T01:55:39.370Z,93.5
2023-05-15T02:00:39.352Z,93.3
2023-05-15T02:05:39.369Z,93.4
2023-05-15T02:09:39.662Z,93.8
2023-05-15T02:15:39.352Z,96.1
2023-05-15T02:20:39.375Z,96.9
2023-05-15T02:25:39.391Z,98.4
2023-05-15T02:30:39.368Z,98.4
2023-05-15T02:35:39.385Z,100.0
2023-05-15T02:40:39.384Z,96.5
2023-05-15T02:45:39.428Z,98.9
2023-05-15T02:50:39.406Z,100.0
2023-05-15T02:55:39.438Z,100.0
2023-05-15T03:00:39.385Z,99.4
2023-05-15T03:05:39.392Z,100.0
2023-05-15T03:10:39.406Z,100.0
2023-05-15T03:15:39.402Z,100.0
2023-05-15T03:20:39.406Z,100.0
2023-05-15T03:25:39.390Z,100.0
2023-05-15T03:35:39.409Z,100.0
2023-05-15T03:40:39.440Z,100.0
2023-05-15T03:55:39.434Z,100.0
2023-05-15T04:00:39.425Z,100.0
2023-05-15T04:10:39.417Z,100.0
2023-05-15T04:15:39.436Z,100.0
2023-05-15T04:20:39.410Z,100.0
2023-05-15T04:25:39.412Z,100.0
2023-05-15T04:30:39.417Z,100.0
2023-05-15T04:35:39.415Z,99.8
2023-05-15T04:40:39.443Z,98.6
2023-05-15T04:45:39.407Z,99.7
2023-05-15T04:50:39.435Z,99.9
2023-05-15T05:00:39.437Z,99.5
2023-05-15T05:05:39.444Z,100.0
2023-05-15T05:10:39.456Z,99.7
2023-05-15T05:15:39.470Z,97.1
2023-05-15T05:25:39.438Z,95.9
2023-05-15T05:40:39.452Z,92.6
2023-05-15T05:45:39.442Z,90.6
2023-05-15T05:50:39.440Z,88.3
2023-05-15T05:55:39.452Z,89.7
2023-05-15T06:00:39.437Z,91.6
2023-05-15T06:10:39.449Z,90.6
2023-05-15T06:15:39.445Z,90.1
2023-05-15T06:20:39.470Z,88.9
2023-05-15T06:25:39.465Z,87.6
2023-05-15T06:30:39.500Z,87.5
2023-05-15T06:35:39.494Z,87.9
2023-05-15T06:40:39.463Z,87.5
2023-05-15T06:45:39.526Z,86.4
2023-05-15T06:55:39.532Z,81.9
2023-05-15T07:00:39.454Z,81.9
2023-05-15T07:05:39.487Z,80.0
2023-05-15T07:10:39.496Z,81.4
2023-05-15T07:15:39.466Z,83.7
2023-05-15T07:20:39.749Z,82.9
2023-05-15T07:25:39.954Z,83.7
2023-05-15T07:30:39.491Z,83.3
2023-05-15T07:35:39.491Z,81.2
2023-05-15T07:40:39.479Z,77.7
2023-05-15T07:45:39.585Z,76.3
2023-05-15T07:50:39.504Z,77.3
2023-05-15T07:55:39.496Z,73.9
2023-05-15T08:00:39.487Z,74.2
2023-05-15T08:10:39.496Z,71.1
2023-05-15T08:15:39.568Z,69.4
2023-05-15T08:20:39.522Z,69.8
2023-05-15T08:25:39.510Z,67.5
2023-05-15T08:30:39.503Z,66.5
2023-05-15T08:35:39.549Z,65.7
2023-05-15T08:40:40.297Z,62.6
2023-05-15T08:45:39.493Z,63.6
2023-05-15T08:50:39.524Z,62.5
2023-05-15T08:55:39.530Z,60.7
2023-05-15T09:00:39.533Z,59.9
2023-05-15T09:05:40.270Z,59.3
2023-05-15T09:10:39.514Z,60.1
2023-05-15T09:15:39.526Z,59.1
2023-05-15T09:20:39.545Z,56.8
2023-05-15T09:30:39.537Z,56.7
2023-05-15T09:35:39.514Z,53.6
2023-05-15T09:40:39.560Z,49.3
2023-05-15T09:45:39.574Z,49.9
2023-05-15T09:50:39.624Z,51.5
2023-05-15T09:55:39.549Z,48.6
2023-05-15T10:00:47.880Z,47.2
2023-05-15T10:05:43.087Z,43.9
2023-05-15T10:10:39.636Z,45.9
2023-05-15T10:15:39.627Z,44.8
2023-05-15T10:20:39.578Z,45.2
2023-05-15T10:30:39.574Z,46.1
2023-05-15T10:35:39.564Z,43.1
2023-05-15T10:40:39.558Z,39.9
2023-05-15T10:45:39.566Z,36.2
2023-05-15T10:50:39.581Z,36.7
2023-05-15T10:55:39.709Z,37.6
2023-05-15T11:00:39.537Z,34.9
2023-05-15T11:05:39.557Z,37.7
2023-05-15T11:10:39.624Z,40.1
2023-05-15T11:15:39.617Z,38.9
2023-05-15T11:20:39.568Z,39.3
2023-05-15T11:25:39.624Z,38.9
2023-05-15T11:35:39.596Z,39.3
2023-05-15T11:45:39.589Z,40.6
2023-05-15T11:50:39.586Z,43.5
2023-05-15T11:55:39.576Z,46.3
2023-05-15T12:00:39.587Z,49.1
2023-05-15T12:05:44.615Z,46.2
2023-05-15T12:10:39.594Z,45.3
2023-05-15T12:15:39.606Z,45.3
2023-05-15T12:20:39.583Z,45.2
2023-05-15T12:25:39.597Z,47.1
2023-05-15T12:35:39.664Z,48.2
2023-05-15T12:40:39.610Z,47.1
2023-05-15T12:45:39.645Z,44.6
2023-05-15T12:50:39.610Z,44.9
2023-05-15T12:55:39.596Z,47.8
2023-05-15T13:00:39.613Z,48.8
2023-05-15T13:05:39.608Z,47.1
2023-05-15T13:10:39.608Z,48.8
2023-05-15T13:15:39.626Z,48.3
2023-05-15T13:20:39.600Z,51.6
2023-05-15T13:25:39.630Z,51.1
2023-05-15T13:30:39.604Z,48.6
2023-05-15T13:35:39.631Z,49.0
2023-05-15T13:40:39.664Z,50.0
2023-05-15T13:45:39.615Z,51.5
2023-05-15T13:50:39.655Z,54.0
2023-05-15T13:55:39.654Z,51.6
2023-05-15T14:00:39.679Z,49.6
2023-05-15T14:05:39.639Z,46.7
2023-05-15T14:10:39.635Z,43.3
2023-05-15T14:15:39.676Z,39.7
2023-05-15T14:20:39.633Z,35.8
2023-05-15T14:25:39.624Z,43.5
2023-05-15T14:35:39.636Z,37.3
2023-05-15T14:40:41.087Z,44.3
2023-05-15T14:45:39.649Z,44.3
2023-05-15T14:50:39.634Z,46.4
2023-05-15T14:55:39.667Z,46.7
2023-05-15T15:00:39.630Z,48.0
2023-05-15T15:05:39.654Z,41.2
2023-05-15T15:10:39.667Z,41.7
2023-05-15T15:15:39.644Z,49.7
2023-05-15T15:20:39.671Z,51.4
2023-05-15T15:25:39.686Z,54.1
2023-05-15T15:30:39.688Z,56.2
2023-05-15T15:35:39.668Z,62.3
2023-05-15T15:40:39.658Z,69.3
2023-05-15T15:45:39.725Z,69.4
2023-05-15T15:50:39.662Z,66.8
2023-05-15T15:55:39.691Z,64.0
2023-05-15T16:00:39.661Z,62.0
2023-05-15T16:05:39.708Z,58.8
2023-05-15T16:10:39.678Z,53.3
2023-05-15T16:15:39.698Z,49.0
2023-05-15T16:20:39.677Z,54.0
2023-05-15T16:25:39.708Z,57.0
2023-05-15T16:30:49.043Z,61.1
2023-05-15T16:35:39.702Z,64.0
2023-05-15T16:40:39.713Z,62.2
2023-05-15T16:45:39.689Z,62.4
2023-05-15T16:50:39.722Z,63.3
2023-05-15T16:55:39.709Z,63.5
2023-05-15T17:00:39.711Z,63.3
2023-05-15T17:05:39.722Z,63.3
2023-05-15T17:10:39.697Z,63.0
2023-05-15T17:15:39.709Z,63.7
2023-05-15T17:20:39.714Z,66.8
2023-05-15T17:25:39.719Z,67.2
2023-05-15T17:30:39.711Z,69.7
2023-05-15T17:35:39.737Z,67.9
2023-05-15T17:40:39.719Z,69.4
2023-05-15T17:45:39.756Z,68.4
2023-05-15T17:50:39.735Z,67.4
2023-05-15T17:55:39.716Z,67.2
2023-05-15T18:00:39.748Z,69.3
2023-05-15T18:10:39.709Z,69.9
2023-05-15T18:20:39.739Z,71.1
2023-05-15T18:25:39.740Z,71.8
2023-05-15T18:30:39.751Z,72.9
2023-05-15T18:40:39.743Z,75.1
2023-05-15T18:55:39.763Z,74.0
2023-05-15T19:00:39.781Z,74.8
2023-05-15T19:05:39.776Z,74.6
2023-05-15T19:10:40.883Z,77.0
2023-05-15T19:15:39.756Z,77.0
2023-05-15T19:25:39.777Z,77.7
2023-05-15T19:30:39.756Z,77.8
2023-05-15T19:35:39.773Z,77.9
2023-05-15T19:40:39.768Z,78.3
2023-05-15T19:50:39.824Z,79.4
2023-05-15T19:55:39.759Z,81.4
2023-05-15T20:00:39.788Z,79.4
2023-05-15T20:05:39.762Z,79.4
2023-05-15T20:10:39.768Z,80.2
2023-05-15T20:15:39.984Z,80.8
2023-05-15T20:25:39.774Z,80.1
2023-05-15T20:35:39.790Z,82.6
2023-05-15T20:40:39.811Z,82.8
2023-05-15T20:50:39.791Z,82.8
2023-05-15T21:00:39.805Z,88.4
2023-05-15T21:05:39.808Z,94.5
2023-05-15T21:10:39.790Z,100.0
2023-05-15T21:15:39.802Z,100.0
2023-05-15T21:20:39.814Z,100.0
2023-05-15T21:25:39.814Z,100.0
2023-05-15T21:30:39.800Z,100.0
2023-05-15T21:35:39.812Z,100.0
2023-05-15T21:40:39.820Z,100.0
2023-05-15T21:45:39.801Z,99.8
2023-05-15T21:55:39.867Z,96.1
2023-05-15T22:00:39.837Z,96.9
2023-05-15T22:05:39.829Z,96.9
2023-05-15T22:10:39.824Z,96.2
2023-05-15T22:15:39.834Z,95.6
2023-05-15T22:20:39.851Z,96.7
2023-05-15T22:25:39.820Z,98.3
2023-05-15T22:30:39.851Z,97.5
2023-05-15T22:35:39.820Z,98.7
2023-05-15T22:40:39.871Z,99.5
2023-05-15T22:45:39.858Z,96.2
2023-05-15T22:50:39.842Z,95.4
2023-05-15T23:00:39.833Z,94.5
2023-05-15T23:05:39.842Z,96.4
2023-05-15T23:10:39.822Z,93.6
2023-05-15T23:15:39.866Z,91.6
2023-05-15T23:20:39.848Z,94.1
2023-05-15T23:25:39.890Z,92.9
2023-05-15T23:30:39.836Z,90.1
2023-05-15T23:40:39.840Z,91.6
2023-05-15T23:45:39.859Z,92.1
2023-05-15T23:50:39.852Z,89.4
2023-05-15T23:55:39.856Z,90.0
